»·PEaware :: UAL576 KSLC-KSNA

UAL576 :: KSLC-KSNA

FLIGHT INFORMATION

Flight Status: Arrived
Operator:
United Airlines
More flights by this operator :: More flights under this callsign
Pilot: Anonymous 8274 (8274)
Aircraft: BOEING 737-200
(B732)
More flights by this aircraft type
Origin: KSLC Salt Lake City Intl
United States
Destination: KSNA John Wayne-Orange Co
United States
More flights between these airports :: More routes between these airports
Route: +FFU9 BCE J11 CORKR J76 LAS HEC KAYOH7
File this flight plan on PilotEdge
Remarks:
Altitude:
(Current/Filed)
32,000ft
Speed:
(Current/Filed)
460kts
Departed: 11-Jul-19 06:03 PM
Arrived: 11-Jul-19 07:44 PM
Distance/Time
Traveled:
511nm/1:41
Distance/Time
To Go:
Arrived

Flight Plot

Page will automatically refresh every two minutes.


Map Options




Map Legend


Flown Route
Filed Route
Departure Airport
Arrival Airport
Navaid (VOR, NDB)
Fix

Horizontal Profiles

Position Reports

Time Latitude Longitude Heading Altitude Ground
Speed
11-Jul-19 17:12 40.788267 -111.982035 103 4236ft 0kts
11-Jul-19 17:13 40.788267 -111.982035 103 4236ft 0kts
11-Jul-19 17:14 40.788267 -111.982035 103 4236ft 0kts
11-Jul-19 17:15 40.788267 -111.982035 103 4236ft 0kts
11-Jul-19 17:16 40.788267 -111.982035 103 4236ft 0kts
11-Jul-19 17:17 40.788267 -111.982035 103 4236ft 0kts
11-Jul-19 17:18 40.788267 -111.982035 103 4236ft 0kts
11-Jul-19 17:19 40.788267 -111.982035 103 4236ft 0kts
11-Jul-19 17:20 40.788267 -111.982035 103 4236ft 0kts
11-Jul-19 17:21 40.788267 -111.982035 103 4236ft 0kts
11-Jul-19 17:22 40.788267 -111.982035 103 4236ft 0kts
11-Jul-19 17:23 40.788267 -111.982035 103 4236ft 0kts
11-Jul-19 17:24 40.788267 -111.982035 103 4236ft 0kts
11-Jul-19 17:25 40.788267 -111.982035 103 4236ft 0kts
11-Jul-19 17:26 40.788267 -111.982035 103 4236ft 0kts
11-Jul-19 17:27 40.788267 -111.982035 103 4236ft 0kts
11-Jul-19 17:28 40.788267 -111.982035 103 4236ft 0kts
11-Jul-19 17:29 40.788267 -111.982035 103 4236ft 0kts
11-Jul-19 17:30 40.788267 -111.982035 103 4236ft 0kts
11-Jul-19 17:31 40.788267 -111.982035 103 4236ft 0kts
11-Jul-19 17:32 40.788267 -111.982035 103 4236ft 0kts
11-Jul-19 17:33 40.788267 -111.982035 103 4236ft 0kts
11-Jul-19 17:34 40.788267 -111.982035 103 4236ft 0kts
11-Jul-19 17:35 40.788267 -111.982035 103 4236ft 0kts
11-Jul-19 17:36 40.788267 -111.982034 103 4236ft 0kts
11-Jul-19 17:37 40.788267 -111.982034 103 4236ft 0kts
11-Jul-19 17:38 40.788267 -111.982034 103 4236ft 0kts
11-Jul-19 17:39 40.788304 -111.982240 103 4236ft 2kts
11-Jul-19 17:40 40.788197 -111.982881 31 4236ft 2kts
11-Jul-19 17:41 40.788049 -111.982947 7 4236ft 0kts
11-Jul-19 17:42 40.788049 -111.982947 7 4236ft 0kts
11-Jul-19 17:43 40.788049 -111.982947 7 4236ft 0kts
11-Jul-19 17:44 40.788049 -111.982947 7 4236ft 0kts
11-Jul-19 17:45 40.788049 -111.982947 7 4236ft 0kts
11-Jul-19 17:46 40.788049 -111.982947 7 4236ft 0kts
11-Jul-19 17:47 40.788049 -111.982947 7 4236ft 0kts
11-Jul-19 17:48 40.788049 -111.982947 7 4236ft 0kts
11-Jul-19 17:49 40.789026 -111.982801 5 4236ft 6kts
11-Jul-19 17:50 40.789857 -111.980431 134 4236ft 7kts
11-Jul-19 17:51 40.789690 -111.978563 84 4236ft 0kts
11-Jul-19 17:52 40.790128 -111.977124 4 4236ft 9kts
11-Jul-19 17:53 40.793927 -111.977535 354 4236ft 19kts
11-Jul-19 17:54 40.801133 -111.978376 354 4236ft 31kts
11-Jul-19 17:55 40.807055 -111.978527 20 4235ft 0kts
11-Jul-19 17:56 40.807055 -111.978526 20 4235ft 0kts
11-Jul-19 17:57 40.807055 -111.978526 20 4236ft 0kts
11-Jul-19 17:58 40.807055 -111.978526 20 4235ft 0kts
11-Jul-19 17:59 40.807055 -111.978527 20 4235ft 0kts
11-Jul-19 18:00 40.807055 -111.978526 20 4236ft 0kts
11-Jul-19 18:01 40.806394 -111.976814 177 4236ft 0kts
11-Jul-19 18:02 40.790866 -111.974975 175 4324ft 131kts
11-Jul-19 18:03 40.752059 -111.967560 174 5533ft 160kts
11-Jul-19 18:04 40.700510 -111.954754 169 6652ft 230kts
11-Jul-19 18:05 40.630133 -111.939504 175 8765ft 274kts
11-Jul-19 18:06 40.551525 -111.928692 175 11169ft 299kts
11-Jul-19 18:07 40.462292 -111.918525 178 12599ft 349kts
11-Jul-19 18:08 40.363882 -111.915781 183 15042ft 358kts
11-Jul-19 18:09 40.262374 -111.918669 183 17180ft 369kts
11-Jul-19 18:10 40.158587 -111.930840 190 19190ft 375kts
11-Jul-19 18:11 40.054671 -111.953475 195 20986ft 381kts
11-Jul-19 18:12 39.950204 -111.983906 188 22601ft 389kts
11-Jul-19 18:13 39.843274 -111.997222 188 24028ft 395kts
11-Jul-19 18:14 39.733300 -112.010749 188 25387ft 399kts
11-Jul-19 18:15 39.622540 -112.025187 188 26611ft 402kts
11-Jul-19 18:16 39.510877 -112.040412 188 27696ft 406kts
11-Jul-19 18:17 39.398428 -112.056292 187 28674ft 409kts
11-Jul-19 18:18 39.284853 -112.072729 188 29516ft 412kts
11-Jul-19 18:19 39.170613 -112.087130 187 30261ft 416kts
11-Jul-19 18:20 39.054561 -112.101670 186 30868ft 421kts
11-Jul-19 18:21 38.937641 -112.116656 186 31579ft 422kts
11-Jul-19 18:22 38.823730 -112.133057 189 32184ft 424kts
11-Jul-19 18:23 38.707125 -112.158868 192 32199ft 422kts
11-Jul-19 18:24 38.592412 -112.187701 192 32198ft 418kts
11-Jul-19 18:25 38.478329 -112.210376 187 32201ft 417kts
11-Jul-19 18:26 38.362533 -112.222422 184 32210ft 421kts
11-Jul-19 18:27 38.245470 -112.229317 184 32263ft 422kts
11-Jul-19 18:28 38.128281 -112.236497 186 32270ft 421kts
11-Jul-19 18:29 38.011850 -112.255478 189 32277ft 421kts
11-Jul-19 18:30 37.899966 -112.274978 189 32285ft 421kts
11-Jul-19 18:31 37.786393 -112.294695 189 32418ft 418kts
11-Jul-19 18:32 37.670855 -112.314845 189 32467ft 419kts
11-Jul-19 18:33 37.554845 -112.302253 176 32458ft 421kts
11-Jul-19 18:34 37.438364 -112.312106 186 32466ft 421kts
11-Jul-19 18:35 37.321298 -112.324560 186 32465ft 422kts
11-Jul-19 18:36 37.204318 -112.337001 186 32408ft 425kts
11-Jul-19 18:37 37.085215 -112.342946 183 32309ft 428kts
11-Jul-19 18:38 36.965895 -112.347288 183 32308ft 428kts
11-Jul-19 18:39 36.852599 -112.351300 183 32310ft 429kts
11-Jul-19 18:40 36.733561 -112.355503 183 32311ft 430kts
11-Jul-19 18:41 36.613529 -112.359648 183 32311ft 431kts
11-Jul-19 18:42 36.493505 -112.363773 183 32310ft 433kts
11-Jul-19 18:44 36.373514 -112.370120 185 32310ft 433kts
11-Jul-19 18:45 36.253086 -112.379605 185 32310ft 434kts
11-Jul-19 18:46 36.132546 -112.388989 185 32308ft 435kts
11-Jul-19 18:47 36.042589 -112.471613 252 32321ft 428kts
11-Jul-19 18:48 36.042221 -112.618679 275 32309ft 432kts
11-Jul-19 18:49 36.055208 -112.763691 274 32310ft 433kts
11-Jul-19 18:50 36.069111 -112.911809 274 32248ft 436kts
11-Jul-19 18:51 36.075326 -113.062050 266 32148ft 437kts
11-Jul-19 18:52 36.071520 -113.211873 265 32143ft 436kts
11-Jul-19 18:53 36.068380 -113.361854 266 32143ft 436kts
11-Jul-19 18:54 36.065959 -113.512190 266 32142ft 436kts
11-Jul-19 18:55 36.065925 -113.658817 266 32142ft 436kts
11-Jul-19 18:56 36.067775 -113.809402 268 32145ft 437kts
11-Jul-19 18:57 36.073315 -113.959500 269 32143ft 437kts
11-Jul-19 18:58 36.078978 -114.109897 269 32076ft 439kts
11-Jul-19 18:59 36.083917 -114.260908 267 31963ft 440kts
11-Jul-19 19:00 36.082432 -114.411617 265 31959ft 439kts
11-Jul-19 19:01 36.078787 -114.562281 265 31958ft 439kts
11-Jul-19 19:02 36.076142 -114.709651 266 31961ft 439kts
11-Jul-19 19:03 36.077649 -114.861246 269 31960ft 441kts
11-Jul-19 19:03 36.080767 -114.987519 269 31960ft 441kts
11-Jul-19 19:05 36.069692 -115.162257 242 31961ft 435kts
11-Jul-19 19:06 35.981583 -115.260026 220 31957ft 431kts
11-Jul-19 19:06 35.907044 -115.341834 220 31965ft 432kts
11-Jul-19 19:07 35.819245 -115.437174 216 31980ft 433kts
11-Jul-19 19:09 35.706421 -115.540622 215 31982ft 435kts
11-Jul-19 19:09 35.625337 -115.614702 215 31982ft 437kts
11-Jul-19 19:10 35.529519 -115.702026 215 31982ft 439kts
11-Jul-19 19:11 35.436433 -115.799003 221 31957ft 441kts
11-Jul-19 19:12 35.346102 -115.901354 220 31926ft 443kts
11-Jul-19 19:13 35.251647 -115.997886 218 31940ft 443kts
11-Jul-19 19:14 35.156754 -116.094193 218 31962ft 444kts
11-Jul-19 19:15 35.061688 -116.190543 218 31980ft 444kts
11-Jul-19 19:16 34.966563 -116.286791 218 31976ft 445kts
11-Jul-19 19:17 34.877025 -116.381386 220 30114ft 433kts
11-Jul-19 19:18 34.785559 -116.473080 222 28112ft 421kts
11-Jul-19 19:19 34.705388 -116.574480 224 26132ft 411kts
11-Jul-19 19:20 34.628583 -116.677009 226 24200ft 402kts
11-Jul-19 19:21 34.551058 -116.774478 225 24100ft 398kts
11-Jul-19 19:22 34.474751 -116.870149 225 22549ft 392kts
11-Jul-19 19:23 34.399556 -116.964123 224 20735ft 382kts
11-Jul-19 19:24 34.320296 -117.047820 220 18951ft 374kts
11-Jul-19 19:25 34.242232 -117.128420 213 17060ft 359kts
11-Jul-19 19:26 34.147529 -117.144770 178 13609ft 341kts
11-Jul-19 19:27 34.056693 -117.140979 184 11014ft 304kts
11-Jul-19 19:28 33.977877 -117.154836 188 9188ft 285kts
11-Jul-19 19:29 33.901087 -117.169601 188 8093ft 276kts
11-Jul-19 19:30 33.826389 -117.179560 185 7998ft 267kts
11-Jul-19 19:31 33.758885 -117.204260 236 8013ft 262kts
11-Jul-19 19:32 33.769061 -117.288471 295 8000ft 267kts
11-Jul-19 19:33 33.778552 -117.374523 266 8001ft 263kts
11-Jul-19 19:34 33.778075 -117.462687 270 7999ft 262kts
11-Jul-19 19:35 33.791420 -117.543316 287 7988ft 234kts
11-Jul-19 19:36 33.810563 -117.615017 286 7779ft 217kts
11-Jul-19 19:37 33.829312 -117.684615 286 6377ft 215kts
11-Jul-19 19:38 33.843172 -117.752316 247 4949ft 205kts
11-Jul-19 19:39 33.799555 -117.790159 207 3340ft 195kts
11-Jul-19 19:40 33.752480 -117.820004 208 1840ft 183kts
11-Jul-19 19:41 33.714102 -117.844410 209 842ft 143kts
11-Jul-19 19:42 33.678799 -117.866866 208 70ft 139kts
11-Jul-19 19:43 33.667496 -117.872830 87 65ft 0kts
11-Jul-19 19:44 33.667496 -117.872830 87 65ft 0kts
11-Jul-19 19:45 33.667595 -117.872515 53 65ft 8kts
11-Jul-19 19:46 33.670425 -117.869543 40 65ft 20kts
11-Jul-19 19:47 33.676328 -117.865041 27 65ft 26kts
11-Jul-19 19:48 33.679178 -117.862858 105 65ft 6kts
11-Jul-19 19:49 33.679036 -117.862513 118 65ft 0kts

Navigation Log

Ident Type
Flight plan parsing failed, navigation log unavailable